Latest Coastal Weather Observations for South Johnstone

IDQ60701

Issued at 2:31 am EST Tuesday 27 January 2015 (issued every 10 minutes, with the page automatically refreshed every 10 minutes)

About coastal observations | Map of coastal stations | Coastal observations for QLD | Marine services | Other Formats
Station Details ID: 032037 Name: SOUTH JOHNSTONE EXP STN Lat: -17.61 Lon: 146.00 Height: 18.3 m
Data from the previous 72 hours. | See also: Recent months at South Johnstone
Date/Time
EST
Temp

°C
Wind Pressure Rain
since 9am
mm
Weather Cloud Vis
km
Sea
Height
m
Swell
Dir
 
Speed
knots
Gust
knots
hPa Trend Height
m
Period
s
Dir
27/02:30am 24.6 CALM 0 1 1004.4 - 1.8 - - - - - - -
27/02:00am 24.7 WNW 2 5 1004.1 - 1.6 - - - - - - -
27/01:30am 24.8 WNW 4 6 1004.0 - 1.6 - - - - - - -
27/01:00am 24.8 W 4 8 1004.4 - 1.4 - - - - - - -
27/12:30am 25.2 W 3 6 1004.9 - 1.2 - - - - - - -
27/12:00am 25.9 WNW 4 9 1005.1 - 0.6 - - - - - - -
 
Date/Time
EST
Temp

°C
Wind Pressure Rain
since 9am
mm
Weather Cloud Vis
km
Sea
Height
m
Swell
Dir
 
Speed
knots
Gust
knots
hPa Trend Height
m
Period
s
Dir
26/11:30pm 25.6 W 1 4 1005.7 - 0.4 - - - - - - -
26/11:00pm 26.0 CALM 0 4 1006.3 - 0.2 - - - - - - -
26/10:30pm 27.2 NW 2 6 1006.3 - 0.0 - - - - - - -
26/10:00pm 27.9 WNW 3 7 1005.8 - 0.0 - - - - - - -
26/09:30pm 28.4 WNW 2 4 1005.0 - 0.0 - - - - - - -
26/09:00pm 28.4 WSW 3 5 1004.8 - 0.0 - - - - - - -
26/08:30pm 28.8 SW 1 4 1004.6 - 0.0 - - - - - - -
26/08:00pm 29.1 CALM 0 2 1004.4 - 0.0 - - - - - - -
26/07:30pm 29.7 CALM 0 0 1004.2 - 0.0 - - - - - - -
26/07:00pm 30.0 ESE 1 3 1003.4 - 0.0 - - - - - - -
26/06:30pm 30.4 SE 3 4 1003.0 - 0.0 - - - - - - -
26/06:00pm 31.1 NE 3 5 1002.2 - 0.0 - - - - - - -
26/05:30pm 31.9 NE 5 7 1002.4 - 0.0 - - - - - - -
26/05:00pm 32.4 ENE 5 8 1002.2 - 0.0 - - - - - - -
26/04:30pm 32.6 NE 6 11 1002.0 - 0.0 - - - - - - -
26/04:00pm 32.7 NE 7 10 1002.2 - 0.0 - - - - - - -
26/03:30pm 33.1 NE 7 10 1002.5 - 0.0 - - - - - - -
26/03:00pm 33.0 NE 9 12 1002.8 - 0.0 - - - - - - -
26/02:30pm 33.3 NE 8 10 1003.3 - 0.0 - - - - - - -
26/02:00pm 33.3 ENE 8 11 1003.7 - 0.0 - - - - - - -
26/01:30pm 34.7 S 8 11 1003.9 - 0.0 - - - - - - -
26/01:00pm 35.4 SW 1 7 1004.2 - 0.0 - - - - - - -
26/12:30pm 34.9 WSW 1 4 1004.5 - 0.0 - - - - - - -
26/12:00pm 34.0 SSW 3 6 1004.8 - 0.0 - - - - - - -
26/11:30am 33.4 CALM 0 3 1005.4 - 0.0 - - - - - - -
26/11:00am 32.8 N 1 4 1006.1 - 0.0 - - - - - - -
26/10:30am 32.0 NNW 1 5 1006.2 - 0.0 - - - - - - -
26/10:00am 31.5 N 3 6 1006.3 - 0.0 - - - - - - -
26/09:30am 30.8 CALM 0 0 1006.6 - 0.0 - - - - - - -
26/09:00am 29.8 SW 2 4 1006.5 - 0.4 - - - - - - -
26/08:30am 28.0 NW 1 4 1006.5 - 0.4 - - - - - - -
26/08:00am 26.6 SW 5 9 1006.7 - 0.4 - - - - - - -
26/07:30am 26.2 CALM 0 0 1006.7 - 0.4 - - - - - - -
26/07:00am 25.5 WNW 1 3 1006.8 - 0.4 - - - - - - -
26/06:30am 25.1 WNW 1 4 1007.0 - 0.4 - - - - - - -
26/06:00am 24.9 CALM 0 0 1006.7 - 0.4 - - - - - - -
26/05:30am 24.9 CALM 0 0 1007.3 - 0.4 - - - - - - -
26/05:00am 25.1 S 3 7 1007.8 - 0.4 - - - - - - -
26/04:30am 25.0 S 2 8 1007.6 - 0.2 - - - - - - -
26/04:00am 24.9 S 1 5 1006.9 - 0.2 - - - - - - -
26/03:30am 25.0 CALM 0 0 1006.9 - 0.2 - - - - - - -
26/03:00am 25.1 CALM 0 1 1007.0 - 0.2 - - - - - - -
26/02:30am 25.0 CALM 0 2 1006.8 - 0.2 - - - - - - -
26/02:00am 25.1 W 1 4 1006.6 - 0.2 - - - - - - -
26/01:30am 25.1 CALM 0 0 1006.6 - 0.2 - - - - - - -
26/01:00am 25.1 CALM 0 1 1006.9 - 0.2 - - - - - - -
26/12:30am 25.2 CALM 0 0 1007.8 - 0.2 - - - - - - -
26/12:00am 25.2 WSW 3 6 1008.4 - 0.2 - - - - - - -
 
Date/Time
EST
Temp

°C
Wind Pressure Rain
since 9am
mm
Weather Cloud Vis
km
Sea
Height
m
Swell
Dir
 
Speed
knots
Gust
knots
hPa Trend Height
m
Period
s
Dir
25/11:30pm 25.3 SW 3 5 1008.9 - 0.2 - - - - - - -
25/11:00pm 25.6 CALM 0 0 1009.0 - 0.0 - - - - - - -
25/10:30pm 25.3 SSE 5 8 1009.1 - 0.0 - - - - - - -
25/10:00pm 25.8 SE 11 18 1009.5 - 0.0 - - - - - - -
25/09:30pm 26.1 ESE 10 13 1009.1 - 0.0 - - - - - - -
25/09:00pm 26.6 S 2 6 1007.5 - 0.0 - - - - - - -
25/08:30pm 26.9 SSE 8 13 1007.1 - 0.0 - - - - - - -
25/08:00pm 28.1 S 1 5 1007.3 - 0.0 - - - - - - -
25/07:30pm 28.6 SW 3 5 1006.9 - 0.0 - - - - - - -
25/07:00pm 28.8 CALM 0 0 1005.9 - 0.0 - - - - - - -
25/06:30pm 29.2 N 1 5 1005.9 - 0.0 - - - - - - -
25/06:00pm 30.5 NE 4 9 1005.2 - 0.0 - - - - - - -
25/05:30pm 30.4 ENE 6 8 1004.5 - 0.0 - - - - - - -
25/05:00pm 31.7 ENE 7 9 1004.6 - 0.0 - - - - - - -
25/04:30pm 31.9 ENE 6 9 1004.2 - 0.0 - - - - - - -
25/04:00pm 32.1 NE 7 10 1004.3 - 0.0 - - - - - - -
25/03:30pm 32.7 ENE 7 11 1004.7 - 0.0 - - - - - - -
25/03:00pm 31.9 NE 9 13 1005.0 - 0.0 - - - - - - -
25/02:30pm 32.9 E 7 12 1005.2 - 0.0 - - - - - - -
25/02:00pm 33.3 ESE 6 9 1005.5 - 0.0 - - - - - - -
25/01:30pm 33.1 ESE 7 11 1006.2 - 0.0 - - - - - - -
25/01:00pm 33.7 SSE 6 10 1006.6 - 0.0 - - - - - - -
25/12:30pm 34.4 S 5 8 1007.0 - 0.0 - - - - - - -
25/12:00pm 33.5 NW 2 7 1007.2 - 0.0 - - - - - - -
25/11:30am 33.0 S 3 8 1007.9 - 0.0 - - - - - - -
25/11:00am 32.2 N 1 5 1008.3 - 0.0 - - - - - - -
25/10:30am 31.6 CALM 0 3 1008.7 - 0.0 - - - - - - -
25/10:00am 30.6 CALM 0 3 1009.1 - 0.0 - - - - - - -
25/09:30am 30.1 CALM 0 3 1009.1 - 0.0 - - - - - - -
25/09:00am 29.5 N 1 5 1008.9 - 12.4 - - - - - - -
25/08:30am 28.2 CALM 0 0 1008.9 - 12.4 - - - - - - -
25/08:00am 26.2 SE 3 4 1008.7 - 12.4 - - - - - - -
25/07:30am 25.9 CALM 0 0 1008.9 - 12.4 - - - - - - -
25/07:00am 25.0 CALM 0 0 1008.6 - 12.4 - - - - - - -
25/06:30am 24.5 CALM 0 0 1008.2 - 12.4 - - - - - - -
25/06:00am 24.4 CALM 0 3 1007.5 - 12.4 - - - - - - -
25/05:30am 24.3 W 2 5 1007.3 - 12.4 - - - - - - -
25/05:00am 24.2 CALM 0 0 1007.1 - 12.4 - - - - - - -
25/04:30am 24.3 CALM 0 0 1007.2 - 12.4 - - - - - - -
25/04:00am 24.3 WNW 3 4 1007.6 - 12.4 - - - - - - -
25/03:30am 24.2 WNW 2 4 1007.9 - 12.4 - - - - - - -
25/03:00am 24.3 CALM 0 0 1008.0 - 12.2 - - - - - - -
25/02:30am 24.3 WSW 1 4 1008.3 - 12.0 - - - - - - -
25/02:00am 24.3 CALM 0 0 1008.7 - 10.8 - - - - - - -
25/01:30am 24.4 CALM 0 0 1008.8 - 10.4 - - - - - - -
25/01:00am 24.3 CALM 0 1 1008.9 - 10.4 - - - - - - -
25/12:30am 24.4 WNW 1 5 1009.2 - 10.2 - - - - - - -
25/12:00am 24.5 WNW 4 7 1009.2 - 8.0 - - - - - - -
 
Date/Time
EST
Temp

°C
Wind Pressure Rain
since 9am
mm
Weather Cloud Vis
km
Sea
Height
m
Swell
Dir
 
Speed
knots
Gust
knots
hPa Trend Height
m
Period
s
Dir
24/11:30pm 25.0 CALM 0 5 1009.6 - 5.8 - - - - - - -
24/11:00pm 25.6 WNW 1 6 1009.7 - 4.6 - - - - - - -
24/10:30pm 25.8 W 1 4 1009.6 - 4.2 - - - - - - -
24/10:00pm 25.8 W 1 5 1009.8 - 3.2 - - - - - - -
24/09:30pm 25.9 W 3 5 1009.6 - 1.2 - - - - - - -
24/09:00pm 26.6 WNW 1 4 1009.1 - 0.0 - - - - - - -
24/08:30pm 26.7 WSW 1 4 1009.1 - 0.0 - - - - - - -
24/08:00pm 26.8 CALM 0 3 1008.4 - 0.0 - - - - - - -
24/07:30pm 26.9 ENE 1 4 1007.6 - 0.0 - - - - - - -
24/07:00pm 27.1 WSW 1 4 1007.4 - 0.0 - - - - - - -
24/06:30pm 27.2 WSW 5 7 1006.7 - 0.0 - - - - - - -
24/06:00pm 27.1 SW 7 10 1005.7 - 0.0 - - - - - - -
24/05:30pm 26.5 WSW 5 9 1005.2 - 0.0 - - - - - - -
24/05:00pm 28.3 CALM 0 4 1005.1 - 0.0 - - - - - - -
24/04:30pm 29.4 S 7 12 1005.0 - 0.0 - - - - - - -
24/04:00pm 30.4 E 5 7 1005.0 - 0.0 - - - - - - -
24/03:30pm 31.2 NE 7 11 1004.3 - 0.0 - - - - - - -
24/03:00pm 32.8 NE 7 11 1004.2 - 0.0 - - - - - - -
24/02:30pm 32.9 NNE 6 11 1004.7 - 0.0 - - - - - - -
24/02:00pm 31.9 ENE 6 10 1005.2 - 0.0 - - - - - - -
24/01:30pm 32.2 CALM 0 4 1005.7 - 0.0 - - - - - - -
24/01:00pm 32.5 CALM 0 4 1005.8 - 0.0 - - - - - - -
24/12:30pm 33.7 N 1 6 1006.0 - 0.0 - - - - - - -
24/12:00pm 32.3 N 3 7 1006.3 - 0.0 - - - - - - -
24/11:30am 31.7 N 3 6 1006.8 - 0.0 - - - - - - -
24/11:00am 31.5 N 1 5 1007.1 - 0.0 - - - - - - -
24/10:30am 31.3 N 3 7 1007.1 - 0.0 - - - - - - -
24/10:00am 31.8 NNE 4 8 1007.3 - 0.0 - - - - - - -
24/09:30am 31.2 NNW 2 5 1007.3 - 0.0 - - - - - - -
24/09:00am 31.4 W 2 5 1007.3 - 0.0 - - - - - - -
24/08:30am 30.1 CALM 0 0 1007.1 - 0.0 - - - - - - -
24/08:00am 28.4 CALM 0 0 1006.7 - 0.0 - - - - - - -
24/07:30am 26.7 WSW 1 4 1006.3 - 0.0 - - - - - - -
24/07:00am 26.1 CALM 0 3 1006.4 - 0.0 - - - - - - -
24/06:30am 25.6 WSW 2 5 1006.4 - 0.0 - - - - - - -
24/06:00am 25.3 CALM 0 0 1006.2 - 0.0 - - - - - - -
24/05:30am 25.4 CALM 0 0 1005.6 - 0.0 - - - - - - -
24/05:00am 25.4 CALM 0 0 1005.2 - 0.0 - - - - - - -
24/04:30am 25.3 CALM 0 0 1004.9 - 0.0 - - - - - - -
24/04:00am 25.3 CALM 0 0 1004.7 - 0.0 - - - - - - -
24/03:30am 25.4 WSW 1 4 1004.2 - 0.0 - - - - - - -
24/03:00am 25.2 CALM 0 0 1004.4 - 0.0 - - - - - - -

Other Formats:

Comma delimited format used in spreadsheet applications
http://www.bom.gov.au/fwo/IDQ60701/IDQ60701.95292.axf

JavaScript Object Notation format (JSON) in row-major order
http://www.bom.gov.au/fwo/IDQ60701/IDQ60701.95292.json